RYR5EK LFBH-LFML
Flight info
| Callsign | RYR5EK |
|---|---|
| Flight time | 0h 58m |
| Altitude | 31000 |
| Route | MAREN CNA NARAK FJR |
| Aircraft | B738/M-V/N |
Departure
| Time | 2026-05-06 13:29 |
|---|---|
| Airport | La Rochelle Île de Ré Airport (LFBH) |
Arrival
| Time | 2026-05-06 14:28 |
|---|---|
| Airport | Marseille Provence Airport (LFML) |
| Time | Latitude | Longitude | Altitude | Speed | Heading |
|---|---|---|---|---|---|
| 2026-05-06 13:21 | 46.17657 | -1.19304 | 61 ft | 0 kts | 309° |
| 2026-05-06 13:26 | 46.17662 | -1.19311 | 61 ft | 3 kts | 309° |
| 2026-05-06 13:26 | 46.17684 | -1.19357 | 61 ft | 7 kts | 295° |
| 2026-05-06 13:26 | 46.17691 | -1.19453 | 61 ft | 11 kts | 272° |
| 2026-05-06 13:26 | 46.17736 | -1.19528 | 61 ft | 12 kts | 355° |
| 2026-05-06 13:27 | 46.17834 | -1.19522 | 61 ft | 14 kts | 4° |
| 2026-05-06 13:27 | 46.17915 | -1.19473 | 62 ft | 12 kts | 77° |
| 2026-05-06 13:27 | 46.17916 | -1.19321 | 63 ft | 22 kts | 92° |
| 2026-05-06 13:27 | 46.17906 | -1.19016 | 64 ft | 37 kts | 92° |
| 2026-05-06 13:28 | 46.17894 | -1.18640 | 67 ft | 36 kts | 92° |
| 2026-05-06 13:28 | 46.17882 | -1.18321 | 68 ft | 12 kts | 97° |
| 2026-05-06 13:28 | 46.17863 | -1.18229 | 68 ft | 5 kts | 60° |
| 2026-05-06 13:28 | 46.17881 | -1.18241 | 68 ft | 7 kts | 284° |
| 2026-05-06 13:29 | 46.17900 | -1.18602 | 68 ft | 80 kts | 276° |
| 2026-05-06 13:29 | 46.17923 | -1.19831 | 107 ft | 160 kts | 276° |
| 2026-05-06 13:29 | 46.17958 | -1.21515 | 888 ft | 180 kts | 276° |
| 2026-05-06 13:29 | 46.17845 | -1.23386 | 1792 ft | 202 kts | 258° |
| 2026-05-06 13:30 | 46.17163 | -1.25204 | 2785 ft | 219 kts | 232° |
| 2026-05-06 13:30 | 46.15955 | -1.26667 | 3648 ft | 241 kts | 212° |
| 2026-05-06 13:30 | 46.14372 | -1.27530 | 4593 ft | 259 kts | 192° |
| 2026-05-06 13:30 | 46.12502 | -1.27723 | 5305 ft | 288 kts | 176° |
| 2026-05-06 13:31 | 46.10567 | -1.27082 | 6037 ft | 282 kts | 153° |
| 2026-05-06 13:31 | 46.09055 | -1.25374 | 6594 ft | 280 kts | 130° |
| 2026-05-06 13:31 | 46.07807 | -1.23139 | 6856 ft | 292 kts | 125° |
| 2026-05-06 13:31 | 46.06556 | -1.20744 | 7028 ft | 309 kts | 125° |
| 2026-05-06 13:32 | 46.05182 | -1.18189 | 7579 ft | 331 kts | 127° |
| 2026-05-06 13:32 | 46.03745 | -1.15609 | 8626 ft | 335 kts | 128° |
| 2026-05-06 13:32 | 46.02281 | -1.13031 | 9643 ft | 339 kts | 128° |
| 2026-05-06 13:32 | 46.00854 | -1.10334 | 10626 ft | 343 kts | 123° |
| 2026-05-06 13:33 | 45.99579 | -1.07466 | 11609 ft | 346 kts | 120° |
| 2026-05-06 13:33 | 45.98349 | -1.04487 | 12533 ft | 351 kts | 120° |
| 2026-05-06 13:33 | 45.97103 | -1.01459 | 13470 ft | 354 kts | 120° |
| 2026-05-06 13:33 | 45.95837 | -0.98453 | 14352 ft | 359 kts | 121° |
| 2026-05-06 13:34 | 45.94508 | -0.95362 | 15203 ft | 364 kts | 121° |
| 2026-05-06 13:34 | 45.93163 | -0.92277 | 16005 ft | 369 kts | 121° |
| 2026-05-06 13:34 | 45.91804 | -0.89183 | 16798 ft | 374 kts | 121° |
| 2026-05-06 13:34 | 45.90410 | -0.86025 | 17574 ft | 380 kts | 121° |
| 2026-05-06 13:35 | 45.88982 | -0.82796 | 18363 ft | 384 kts | 121° |
| 2026-05-06 13:35 | 45.87548 | -0.79556 | 19128 ft | 388 kts | 120° |
| 2026-05-06 13:35 | 45.86104 | -0.76298 | 19871 ft | 392 kts | 120° |
| 2026-05-06 13:35 | 45.84631 | -0.72976 | 20593 ft | 397 kts | 120° |
| 2026-05-06 13:36 | 45.83150 | -0.69644 | 21297 ft | 401 kts | 120° |
| 2026-05-06 13:36 | 45.81644 | -0.66259 | 21995 ft | 405 kts | 120° |
| 2026-05-06 13:36 | 45.80125 | -0.62848 | 22647 ft | 409 kts | 120° |
| 2026-05-06 13:36 | 45.78599 | -0.59428 | 23313 ft | 413 kts | 119° |
| 2026-05-06 13:37 | 45.77053 | -0.55968 | 23930 ft | 417 kts | 119° |
| 2026-05-06 13:37 | 45.75484 | -0.52461 | 24577 ft | 421 kts | 119° |
| 2026-05-06 13:37 | 45.73891 | -0.48901 | 25140 ft | 426 kts | 119° |
| 2026-05-06 13:37 | 45.72278 | -0.45302 | 25747 ft | 429 kts | 119° |
| 2026-05-06 13:38 | 45.70671 | -0.41717 | 26460 ft | 429 kts | 119° |
| 2026-05-06 13:38 | 45.69063 | -0.38138 | 27341 ft | 425 kts | 119° |
| 2026-05-06 13:38 | 45.67482 | -0.34626 | 28074 ft | 423 kts | 120° |
| 2026-05-06 13:38 | 45.65885 | -0.31078 | 28679 ft | 424 kts | 120° |
| 2026-05-06 13:39 | 45.64295 | -0.27548 | 29304 ft | 424 kts | 120° |
| 2026-05-06 13:39 | 45.62716 | -0.24047 | 29930 ft | 423 kts | 119° |
| 2026-05-06 13:39 | 45.61112 | -0.20495 | 30523 ft | 423 kts | 119° |
| 2026-05-06 13:39 | 45.59538 | -0.17011 | 30866 ft | 427 kts | 119° |
| 2026-05-06 13:40 | 45.57899 | -0.13381 | 30891 ft | 437 kts | 119° |
| 2026-05-06 13:40 | 45.56249 | -0.09727 | 30893 ft | 448 kts | 120° |
| 2026-05-06 13:40 | 45.54543 | -0.05959 | 30885 ft | 459 kts | 120° |
| 2026-05-06 13:41 | 45.51006 | 0.01827 | 30882 ft | 470 kts | 120° |
| 2026-05-06 13:41 | 45.47450 | 0.09612 | 30883 ft | 469 kts | 120° |
| 2026-05-06 13:42 | 45.43903 | 0.17358 | 30872 ft | 469 kts | 120° |
| 2026-05-06 13:42 | 45.40330 | 0.25147 | 30881 ft | 470 kts | 120° |
| 2026-05-06 13:43 | 45.36759 | 0.32911 | 30878 ft | 470 kts | 121° |
| 2026-05-06 13:43 | 45.33201 | 0.40630 | 30882 ft | 470 kts | 121° |
| 2026-05-06 13:44 | 45.29612 | 0.48395 | 30886 ft | 470 kts | 121° |
| 2026-05-06 13:44 | 45.26032 | 0.56120 | 30881 ft | 470 kts | 121° |
| 2026-05-06 13:45 | 45.22410 | 0.63914 | 30892 ft | 471 kts | 121° |
| 2026-05-06 13:45 | 45.16959 | 0.75608 | 30892 ft | 485 kts | 122° |
| 2026-05-06 13:46 | 45.13248 | 0.83539 | 30900 ft | 483 kts | 123° |
| 2026-05-06 13:46 | 45.09547 | 0.91423 | 30891 ft | 483 kts | 123° |
| 2026-05-06 13:47 | 45.05826 | 0.99331 | 30893 ft | 482 kts | 123° |
| 2026-05-06 13:47 | 45.02119 | 1.07186 | 30890 ft | 481 kts | 123° |
| 2026-05-06 13:48 | 44.98394 | 1.15058 | 30896 ft | 483 kts | 123° |
| 2026-05-06 13:48 | 44.94648 | 1.22953 | 30904 ft | 484 kts | 123° |
| 2026-05-06 13:49 | 44.90910 | 1.30809 | 30898 ft | 485 kts | 124° |
| 2026-05-06 13:49 | 44.87135 | 1.38724 | 30910 ft | 485 kts | 124° |
| 2026-05-06 13:50 | 44.83367 | 1.46602 | 30906 ft | 485 kts | 124° |
| 2026-05-06 13:50 | 44.79593 | 1.54469 | 30906 ft | 484 kts | 124° |
| 2026-05-06 13:51 | 44.75841 | 1.62267 | 30906 ft | 484 kts | 124° |
| 2026-05-06 13:51 | 44.72047 | 1.70133 | 30909 ft | 483 kts | 125° |
| 2026-05-06 13:52 | 44.68276 | 1.77929 | 30920 ft | 484 kts | 126° |
| 2026-05-06 13:52 | 44.64498 | 1.85720 | 30914 ft | 484 kts | 126° |
| 2026-05-06 13:53 | 44.60706 | 1.93518 | 30916 ft | 484 kts | 126° |
| 2026-05-06 13:53 | 44.56910 | 2.01304 | 30912 ft | 484 kts | 126° |
| 2026-05-06 13:54 | 44.53090 | 2.09116 | 30911 ft | 483 kts | 126° |
| 2026-05-06 13:54 | 44.49300 | 2.16846 | 30915 ft | 483 kts | 126° |
| 2026-05-06 13:55 | 44.45497 | 2.24583 | 30919 ft | 484 kts | 126° |
| 2026-05-06 13:55 | 44.41658 | 2.32374 | 30925 ft | 485 kts | 127° |
| 2026-05-06 13:56 | 44.37848 | 2.40081 | 30933 ft | 484 kts | 127° |
| 2026-05-06 13:56 | 44.34024 | 2.47799 | 30949 ft | 483 kts | 127° |
| 2026-05-06 13:57 | 44.30176 | 2.55543 | 30928 ft | 484 kts | 127° |
| 2026-05-06 13:57 | 44.26357 | 2.63209 | 30915 ft | 485 kts | 127° |
| 2026-05-06 13:58 | 44.22494 | 2.70940 | 30916 ft | 484 kts | 128° |
| 2026-05-06 13:58 | 44.18674 | 2.78570 | 30904 ft | 484 kts | 128° |
| 2026-05-06 13:59 | 44.14807 | 2.86270 | 30891 ft | 485 kts | 128° |
| 2026-05-06 13:59 | 44.10936 | 2.93957 | 30433 ft | 487 kts | 129° |
| 2026-05-06 14:00 | 44.09000 | 2.97796 | 30010 ft | 484 kts | 129° |
| 2026-05-06 14:00 | 44.07073 | 3.01613 | 29574 ft | 483 kts | 129° |
| 2026-05-06 14:00 | 44.05136 | 3.05442 | 29140 ft | 484 kts | 129° |
| 2026-05-06 14:00 | 44.03199 | 3.09266 | 28705 ft | 486 kts | 129° |
| 2026-05-06 14:01 | 44.01252 | 3.13102 | 28268 ft | 487 kts | 128° |
| 2026-05-06 14:01 | 43.99309 | 3.16924 | 27830 ft | 488 kts | 128° |
| 2026-05-06 14:01 | 43.97361 | 3.20753 | 27397 ft | 489 kts | 128° |
| 2026-05-06 14:01 | 43.95376 | 3.24650 | 26945 ft | 490 kts | 128° |
| 2026-05-06 14:02 | 43.93420 | 3.28486 | 26503 ft | 492 kts | 128° |
| 2026-05-06 14:02 | 43.91450 | 3.32345 | 26071 ft | 493 kts | 128° |
| 2026-05-06 14:02 | 43.89446 | 3.36266 | 25623 ft | 493 kts | 127° |
| 2026-05-06 14:02 | 43.87497 | 3.40162 | 25145 ft | 494 kts | 126° |
| 2026-05-06 14:03 | 43.85642 | 3.44091 | 24644 ft | 489 kts | 124° |
| 2026-05-06 14:03 | 43.83853 | 3.48041 | 24124 ft | 479 kts | 123° |
| 2026-05-06 14:03 | 43.82138 | 3.51899 | 23555 ft | 469 kts | 123° |
| 2026-05-06 14:03 | 43.80456 | 3.55702 | 23001 ft | 460 kts | 123° |
| 2026-05-06 14:04 | 43.78803 | 3.59432 | 22439 ft | 451 kts | 123° |
| 2026-05-06 14:04 | 43.77179 | 3.63084 | 21890 ft | 442 kts | 123° |
| 2026-05-06 14:04 | 43.75571 | 3.66676 | 21338 ft | 434 kts | 124° |
| 2026-05-06 14:04 | 43.73993 | 3.70186 | 20796 ft | 427 kts | 124° |
| 2026-05-06 14:05 | 43.72422 | 3.73662 | 20241 ft | 419 kts | 124° |
| 2026-05-06 14:05 | 43.70891 | 3.77037 | 19708 ft | 413 kts | 124° |
| 2026-05-06 14:05 | 43.69391 | 3.80336 | 19173 ft | 409 kts | 124° |
| 2026-05-06 14:05 | 43.67877 | 3.83656 | 18621 ft | 405 kts | 124° |
| 2026-05-06 14:06 | 43.66386 | 3.86925 | 18100 ft | 402 kts | 124° |
| 2026-05-06 14:06 | 43.64905 | 3.90164 | 17551 ft | 399 kts | 124° |
| 2026-05-06 14:06 | 43.63421 | 3.93408 | 16998 ft | 397 kts | 124° |
| 2026-05-06 14:06 | 43.61969 | 3.96579 | 16476 ft | 395 kts | 124° |
| 2026-05-06 14:07 | 43.60497 | 3.99789 | 15950 ft | 392 kts | 124° |
| 2026-05-06 14:07 | 43.59053 | 4.02933 | 15438 ft | 389 kts | 124° |
| 2026-05-06 14:07 | 43.57614 | 4.06065 | 14941 ft | 386 kts | 124° |
| 2026-05-06 14:07 | 43.56181 | 4.09181 | 14458 ft | 384 kts | 124° |
| 2026-05-06 14:08 | 43.54756 | 4.12273 | 13931 ft | 381 kts | 124° |
| 2026-05-06 14:08 | 43.53352 | 4.15317 | 13448 ft | 378 kts | 124° |
| 2026-05-06 14:08 | 43.51955 | 4.18342 | 12992 ft | 375 kts | 124° |
| 2026-05-06 14:08 | 43.50505 | 4.21305 | 12510 ft | 371 kts | 129° |
| 2026-05-06 14:09 | 43.48798 | 4.23912 | 12152 ft | 366 kts | 137° |
| 2026-05-06 14:09 | 43.46934 | 4.26280 | 11905 ft | 367 kts | 140° |
| 2026-05-06 14:09 | 43.45018 | 4.28613 | 11666 ft | 365 kts | 140° |
| 2026-05-06 14:09 | 43.43134 | 4.30944 | 11412 ft | 364 kts | 139° |
| 2026-05-06 14:10 | 43.41265 | 4.33325 | 11165 ft | 364 kts | 138° |
| 2026-05-06 14:10 | 43.39449 | 4.35696 | 10914 ft | 362 kts | 137° |
| 2026-05-06 14:10 | 43.37699 | 4.38150 | 10678 ft | 362 kts | 133° |
| 2026-05-06 14:10 | 43.36084 | 4.40797 | 10424 ft | 361 kts | 129° |
| 2026-05-06 14:11 | 43.34537 | 4.43544 | 10166 ft | 360 kts | 128° |
| 2026-05-06 14:11 | 43.33040 | 4.46246 | 9919 ft | 358 kts | 128° |
| 2026-05-06 14:11 | 43.31509 | 4.48972 | 9681 ft | 357 kts | 128° |
| 2026-05-06 14:11 | 43.29987 | 4.51632 | 9438 ft | 357 kts | 129° |
| 2026-05-06 14:12 | 43.28439 | 4.54300 | 9184 ft | 355 kts | 129° |
| 2026-05-06 14:12 | 43.26912 | 4.56909 | 8935 ft | 353 kts | 129° |
| 2026-05-06 14:12 | 43.25382 | 4.59513 | 8698 ft | 352 kts | 129° |
| 2026-05-06 14:12 | 43.23828 | 4.62150 | 8453 ft | 352 kts | 129° |
| 2026-05-06 14:13 | 43.22320 | 4.64712 | 8194 ft | 343 kts | 129° |
| 2026-05-06 14:13 | 43.20858 | 4.67195 | 7951 ft | 331 kts | 130° |
| 2026-05-06 14:13 | 43.19429 | 4.69620 | 7701 ft | 320 kts | 130° |
| 2026-05-06 14:13 | 43.18053 | 4.71956 | 7452 ft | 311 kts | 130° |
| 2026-05-06 14:14 | 43.16708 | 4.74235 | 7193 ft | 302 kts | 130° |
| 2026-05-06 14:14 | 43.15465 | 4.76464 | 6942 ft | 295 kts | 126° |
| 2026-05-06 14:14 | 43.14347 | 4.78776 | 6698 ft | 290 kts | 123° |
| 2026-05-06 14:14 | 43.13264 | 4.81118 | 6456 ft | 290 kts | 123° |
| 2026-05-06 14:15 | 43.12195 | 4.83441 | 6204 ft | 289 kts | 123° |
| 2026-05-06 14:15 | 43.11131 | 4.85752 | 6027 ft | 285 kts | 123° |
| 2026-05-06 14:15 | 43.10068 | 4.88053 | 6010 ft | 289 kts | 123° |
| 2026-05-06 14:15 | 43.08992 | 4.90378 | 5999 ft | 288 kts | 123° |
| 2026-05-06 14:16 | 43.07912 | 4.92707 | 5997 ft | 288 kts | 123° |
| 2026-05-06 14:16 | 43.06848 | 4.95006 | 5998 ft | 289 kts | 123° |
| 2026-05-06 14:16 | 43.05780 | 4.97319 | 5997 ft | 288 kts | 122° |
| 2026-05-06 14:16 | 43.04702 | 4.99654 | 5950 ft | 289 kts | 122° |
| 2026-05-06 14:17 | 43.03874 | 5.02125 | 5788 ft | 288 kts | 102° |
| 2026-05-06 14:17 | 43.03845 | 5.04797 | 5634 ft | 283 kts | 76° |
| 2026-05-06 14:17 | 43.04498 | 5.07311 | 5470 ft | 281 kts | 64° |
| 2026-05-06 14:17 | 43.05316 | 5.09738 | 5301 ft | 279 kts | 63° |
| 2026-05-06 14:18 | 43.06146 | 5.12125 | 5144 ft | 280 kts | 62° |
| 2026-05-06 14:18 | 43.06986 | 5.14540 | 5009 ft | 278 kts | 63° |
| 2026-05-06 14:18 | 43.07836 | 5.16894 | 4987 ft | 279 kts | 59° |
| 2026-05-06 14:18 | 43.08877 | 5.19164 | 4922 ft | 280 kts | 53° |
| 2026-05-06 14:19 | 43.09980 | 5.21328 | 4821 ft | 272 kts | 52° |
| 2026-05-06 14:19 | 43.11104 | 5.23333 | 4624 ft | 262 kts | 42° |
| 2026-05-06 14:19 | 43.12550 | 5.24710 | 4423 ft | 251 kts | 25° |
| 2026-05-06 14:19 | 43.14105 | 5.25744 | 4266 ft | 242 kts | 22° |
| 2026-05-06 14:20 | 43.15605 | 5.26708 | 4129 ft | 235 kts | 22° |
| 2026-05-06 14:20 | 43.17067 | 5.27655 | 3994 ft | 233 kts | 22° |
| 2026-05-06 14:20 | 43.18522 | 5.28604 | 3869 ft | 223 kts | 22° |
| 2026-05-06 14:20 | 43.19886 | 5.29497 | 3756 ft | 210 kts | 22° |
| 2026-05-06 14:21 | 43.21153 | 5.30338 | 3709 ft | 195 kts | 22° |
| 2026-05-06 14:21 | 43.22345 | 5.31135 | 3673 ft | 191 kts | 22° |
| 2026-05-06 14:21 | 43.23555 | 5.31942 | 3600 ft | 191 kts | 22° |
| 2026-05-06 14:21 | 43.24745 | 5.32732 | 3507 ft | 191 kts | 22° |
| 2026-05-06 14:22 | 43.25931 | 5.33519 | 3422 ft | 191 kts | 22° |
| 2026-05-06 14:22 | 43.27124 | 5.34316 | 3395 ft | 191 kts | 22° |
| 2026-05-06 14:22 | 43.28325 | 5.35119 | 3367 ft | 191 kts | 22° |
| 2026-05-06 14:22 | 43.29494 | 5.35909 | 3336 ft | 179 kts | 22° |
| 2026-05-06 14:23 | 43.30568 | 5.36644 | 3310 ft | 170 kts | 22° |
| 2026-05-06 14:23 | 43.31630 | 5.37391 | 3293 ft | 171 kts | 28° |
| 2026-05-06 14:23 | 43.32523 | 5.38480 | 3286 ft | 171 kts | 25° |
| 2026-05-06 14:23 | 43.33648 | 5.38614 | 3196 ft | 162 kts | 334° |
| 2026-05-06 14:24 | 43.34472 | 5.37655 | 3100 ft | 161 kts | 302° |
| 2026-05-06 14:24 | 43.34893 | 5.36198 | 2797 ft | 166 kts | 283° |
| 2026-05-06 14:24 | 43.35107 | 5.34668 | 2619 ft | 165 kts | 277° |
| 2026-05-06 14:24 | 43.35272 | 5.33133 | 2389 ft | 162 kts | 294° |
| 2026-05-06 14:25 | 43.36057 | 5.32019 | 2140 ft | 162 kts | 320° |
| 2026-05-06 14:25 | 43.36960 | 5.31063 | 2012 ft | 167 kts | 320° |
| 2026-05-06 14:25 | 43.37839 | 5.29981 | 1768 ft | 167 kts | 313° |
| 2026-05-06 14:25 | 43.38580 | 5.28883 | 1646 ft | 145 kts | 309° |
| 2026-05-06 14:26 | 43.39228 | 5.27842 | 1336 ft | 142 kts | 309° |
| 2026-05-06 14:26 | 43.39892 | 5.26865 | 1077 ft | 138 kts | 313° |
| 2026-05-06 14:26 | 43.40577 | 5.25935 | 828 ft | 141 kts | 311° |
| 2026-05-06 14:26 | 43.41262 | 5.24948 | 602 ft | 143 kts | 309° |
| 2026-05-06 14:27 | 43.41946 | 5.23959 | 399 ft | 138 kts | 310° |
| 2026-05-06 14:27 | 43.42603 | 5.23043 | 186 ft | 133 kts | 309° |
| 2026-05-06 14:27 | 43.43229 | 5.22144 | 56 ft | 125 kts | 309° |
| 2026-05-06 14:27 | 43.43698 | 5.21465 | 31 ft | 63 kts | 314° |
| 2026-05-06 14:28 | 43.43895 | 5.21193 | 25 ft | 31 kts | 320° |
| 2026-05-06 14:28 | 43.44050 | 5.21097 | 21 ft | 12 kts | 342° |
| 2026-05-06 14:28 | 43.44136 | 5.21079 | 20 ft | 13 kts | 12° |
| 2026-05-06 14:28 | 43.44145 | 5.21164 | 20 ft | 11 kts | 131° |
| 2026-05-06 14:29 | 43.44091 | 5.21240 | 21 ft | 10 kts | 135° |
| 2026-05-06 14:29 | 43.44064 | 5.21298 | 21 ft | 7 kts | 98° |
| 2026-05-06 14:29 | 43.44096 | 5.21384 | 21 ft | 10 kts | 43° |
| 2026-05-06 14:29 | 43.44129 | 5.21425 | 20 ft | 6 kts | 43° |
| 2026-05-06 14:30 | 43.44162 | 5.21472 | 20 ft | 7 kts | 46° |
| 2026-05-06 14:30 | 43.44197 | 5.21515 | 19 ft | 3 kts | 40° |
| 2026-05-06 14:30 | 43.44223 | 5.21517 | 18 ft | 4 kts | 329° |
| 2026-05-06 14:30 | 43.44242 | 5.21494 | 18 ft | 3 kts | 315° |
| 2026-05-06 14:31 | 43.44254 | 5.21477 | 18 ft | 0 kts | 313° |